Pagrindinis puslapis
METAR-TAF:

METAR-TAF

Oro uostai :

Frederick, Oklahoma, Jungtinės Amerikos Valstijos

platuma: 34-20-40N, ilguma: 098-58-59W, Aukštis: 382 m

Dabartinis oras

Ataskaita buvo paskelbta 12 minutes, ne 12:53 UTC
Vėjas 5 kt iš Šiaurės
Temperatūra 6°C
Drėgmė 70%
Slėgis 1018 hPa
Matomumas: 16.1 km
Giedras dangus

METAR: KFDR 021253Z AUTO 36005KT 10SM CLR 06/01 A3007 RMK AO2 SLP178 T00610011

Laikas: 07:05 (13:05 UTC)


TAF: trūkstamas

Orai ataskaitas ir orų prognozės (METAR, TAF).

turimą stotys yra geltonos ir raudonos taškus žemėlapyje.

Perkelti pele per norėdami pamatyti stoties vardą.

Tada spustelėkite, norėdami matyti oro stebėjimo ir prognozės.

Norėdami pakeisti žemėlapį: spustelėkite ant žalios mygtukų su juodo kryžiaus žemyn,; žalią mygtuką su brūkšneliu, jei norite nutolinti; arba žalių rodyklių gretimoms žemėlapius.


METAR-TAF: